Latest Weather Observations for Cooma Airport

IDN60901

Issued at 3:21 pm EST Tuesday 29 September 2020 (issued every 10 minutes, with the page automatically refreshed every 10 minutes)

About weather observations | Map of Canberra area stations | Latest observations for Canberra area | Other Formats
Station Details ID: 070217 Name: COOMA AIRPORT AWS Lat: -36.29 Lon: 148.97 Height: 930.0 m
Data from the previous 72 hours. | See also: Recent months at Cooma Airport
Date/Time
EST
Temp
°C
App
Temp
°C
Dew
Point
°C
Rel
Hum
%
Delta-T
°C
Wind Press
QNH
hPa
Press
MSL
hPa
Rain since
9am
mm
Dir  Spd
km/h
Gust
km/h
Spd
kts
Gust
kts
29/03:00pm 16.9 11.9 -4.3 23 8.8 NW 13 20 7 11 1020.5 1020.5 0.0
29/02:30pm 16.6 11.2 -4.6 23 8.7 NW 15 22 8 12 1020.7 1020.7 0.0
29/02:00pm 16.7 11.2 -5.1 22 8.8 NW 15 24 8 13 1021.0 1021.1 0.0
29/01:30pm 16.2 10.8 -8.1 18 9.2 NW 13 20 7 11 1021.7 1021.7 0.0
29/01:00pm 16.7 11.9 -5.7 21 9.0 NW 11 15 6 8 1022.1 1022.2 0.0
29/12:30pm 15.9 10.9 -4.6 24 8.4 NNW 13 24 7 13 1022.5 1022.5 0.0
29/12:00pm 16.1 11.4 -5.0 23 8.5 NNW 11 20 6 11 1023.0 1023.1 0.0
29/11:30am 15.0 9.8 -5.9 23 8.2 N 13 20 7 11 1023.6 1023.6 0.0
29/11:00am 14.3 9.8 1.9 43 5.7 NE 15 22 8 12 1023.8 1023.9 0.0
29/10:30am 13.1 8.3 2.4 48 4.9 NE 17 24 9 13 1024.4 1024.5 0.0
29/10:00am 11.8 6.9 4.3 60 3.6 NE 19 26 10 14 1025.1 1025.2 0.0
29/09:30am 10.2 5.3 5.0 70 2.5 NE 20 26 11 14 1025.5 1025.7 0.0
29/09:00am 7.7 3.0 5.0 83 1.3 NE 19 22 10 12 1026.4 1026.6 0.0
29/08:42am 5.9 1.2 5.2 95 0.3 NE 19 22 10 12 1026.3 1026.4 0.0
29/08:30am 5.0 0.3 5.0 100 0.0 ENE 19 24 10 13 1026.2 1026.3 0.0
29/08:11am 4.4 -0.1 4.4 100 0.0 NE 17 20 9 11 1026.2 1026.3 0.0
29/08:00am 3.4 -1.6 3.4 100 0.0 NE 19 22 10 12 1026.1 1026.2 0.0
29/07:30am 2.9 -1.8 2.9 100 0.0 NNE 17 20 9 11 1025.6 1025.8 0.0
29/07:00am 2.1 -2.0 2.1 100 0.0 NE 13 15 7 8 1025.4 1025.5 0.0
29/06:30am 2.2 -1.9 2.2 100 0.0 NNE 13 19 7 10 1025.3 1025.4 0.0
29/06:00am 1.8 -2.4 1.8 100 0.0 NNE 13 15 7 8 1025.0 1025.1 0.0
29/05:30am 1.3 -3.0 1.3 100 0.0 NNE 13 15 7 8 1024.5 1024.7 0.0
29/05:00am 0.7 -3.7 0.6 99 0.0 NE 13 13 7 7 1024.3 1024.4 0.0
29/04:30am -1.9 -6.2 -2.0 99 -0.1 NNE 11 15 6 8 1024.3 1024.4 0.0
29/04:00am -1.3 -4.8 -1.4 99 0.0 N 7 9 4 5 1024.2 1024.3 0.0
29/03:30am -1.3 -4.8 -1.4 99 0.0 NNE 7 9 4 5 1024.4 1024.5 0.0
29/03:24am -1.4 -4.7 -1.5 99 0.0 NNE 6 7 3 4 1024.4 1024.5 0.0
29/03:17am -1.2 -4.7 -1.3 99 0.0 NNE 7 7 4 4 1024.6 1024.8 0.0
29/03:00am -0.8 -4.2 -0.9 99 0.0 N 7 9 4 5 1024.8 1024.9 0.0
29/02:30am -1.6 -5.1 -1.7 99 0.0 NNE 7 9 4 5 1024.9 1025.0 0.0
29/02:00am -1.4 -4.8 -1.8 97 0.1 N 6 7 3 4 1025.0 1025.1 0.0
29/01:30am -1.0 -4.3 -1.4 97 0.1 NNE 6 7 3 4 1025.4 1025.5 0.0
29/01:00am -1.0 -4.4 -1.8 94 0.2 N 6 7 3 4 1025.7 1025.9 0.0
29/12:30am -0.5 -2.7 -1.3 94 0.3 CALM 0 0 0 0 1025.8 1026.0 0.0
29/12:00am 0.8 -2.4 -0.6 90 0.5 NNW 6 9 3 5 1026.0 1026.1 0.0
 
Date/Time
EST
Temp
°C
App
Temp
°C
Dew
Point
°C
Rel
Hum
%
Delta-T
°C
Wind Press
QNH
hPa
Press
MSL
hPa
Rain since
9am
mm
Dir  Spd
km/h
Gust
km/h
Spd
kts
Gust
kts
28/11:30pm 2.7 -0.4 1.4 91 0.5 N 7 7 4 4 1026.1 1026.2 0.0
28/11:00pm 2.8 -0.3 1.5 91 0.5 NNE 7 9 4 5 1026.2 1026.3 0.0
28/10:30pm 2.9 -0.5 1.7 92 0.5 NNE 9 11 5 6 1026.3 1026.4 0.0
28/10:00pm 3.6 -0.1 2.4 92 0.5 N 11 15 6 8 1026.3 1026.4 0.0
28/09:30pm 4.4 0.8 3.2 92 0.5 N 11 19 6 10 1026.3 1026.4 0.0
28/09:00pm 3.5 -0.2 2.5 93 0.4 NNE 11 13 6 7 1026.3 1026.4 0.0
28/08:30pm 4.7 1.8 2.6 86 0.9 NNE 7 11 4 6 1026.2 1026.3 0.0
28/08:00pm 5.2 1.2 2.6 83 1.1 NNE 13 15 7 8 1026.1 1026.2 0.0
28/07:30pm 6.6 2.4 3.8 82 1.3 NNE 15 17 8 9 1025.5 1025.7 0.0
28/07:00pm 7.3 3.0 3.2 75 1.8 NNE 15 17 8 9 1025.2 1025.3 0.0
28/06:30pm 9.4 4.2 2.3 61 3.2 E 19 28 10 15 1024.6 1024.8 0.0
28/06:00pm 8.7 5.0 -2.6 45 4.4 S 7 9 4 5 1024.2 1024.3 0.0
28/05:30pm 11.7 5.9 -4.8 31 6.4 S 17 20 9 11 1023.9 1024.0 0.0
28/05:00pm 13.5 7.7 -5.1 27 7.3 S 17 24 9 13 1023.6 1023.6 0.0
28/04:30pm 14.1 9.2 -3.6 29 7.2 SSE 13 20 7 11 1023.2 1023.3 0.0
28/04:00pm 14.5 8.4 -4.2 27 7.6 SSE 19 30 10 16 1023.1 1023.2 0.0
28/03:30pm 14.8 8.7 -3.5 28 7.6 SSE 19 24 10 13 1023.0 1023.1 0.0
28/03:00pm 15.1 8.8 -4.2 26 7.8 SSE 20 32 11 17 1023.2 1023.3 0.0
28/02:30pm 14.9 9.9 -3.9 27 7.7 SSW 13 22 7 12 1023.3 1023.4 0.0
28/02:00pm 14.4 8.5 -5.9 24 7.9 SSW 17 26 9 14 1023.8 1023.9 0.0
28/01:30pm 14.4 9.3 -4.8 26 7.7 SW 13 22 7 12 1023.9 1024.0 0.0
28/01:00pm 13.9 8.8 -4.8 27 7.4 SSW 13 22 7 12 1024.3 1024.4 0.0
28/12:30pm 13.4 8.7 -2.1 34 6.5 SSW 13 20 7 11 1024.5 1024.7 0.0
28/12:00pm 12.7 8.2 -3.1 33 6.4 SSW 11 15 6 8 1024.9 1025.0 0.0
28/11:30am 12.2 8.3 -1.7 38 5.8 S 9 19 5 10 1025.1 1025.2 0.0
28/11:00am 10.6 5.9 -4.6 34 5.8 SW 11 19 6 10 1025.3 1025.4 0.0
28/10:30am 9.9 4.8 -4.8 35 5.6 SSW 13 15 7 8 1025.8 1026.0 0.0
28/10:00am 8.8 5.0 -3.4 42 4.7 SSW 7 11 4 6 1026.0 1026.1 0.0
28/09:30am 7.4 4.6 -0.5 57 3.2 WSW 4 9 2 5 1026.1 1026.2 0.0
28/09:00am 5.3 2.0 -1.2 63 2.5 S 6 9 3 5 1026.1 1026.2 0.0
28/08:30am 4.3 1.0 -0.1 73 1.8 SSW 7 11 4 6 1026.2 1026.3 0.0
28/08:00am 3.0 -0.8 -0.5 78 1.4 S 9 13 5 7 1026.1 1026.2 0.0
28/07:30am 1.1 -1.5 -1.5 83 1.0 SSW 2 6 1 3 1026.1 1026.2 0.0
28/07:00am -0.7 -2.9 -1.3 96 0.2 CALM 0 0 0 0 1025.8 1026.0 0.0
28/06:30am -3.5 -6.0 -4.0 96 0.0 CALM 0 0 0 0 1025.5 1025.7 0.0
28/06:00am -5.1 -8.6 -6.6 89 0.3 W 4 6 2 3 1025.1 1025.2 0.0
28/05:30am -3.2 -6.8 -4.0 94 0.1 W 6 7 3 4 1024.9 1025.0 0.0
28/05:00am -3.5 -7.2 -4.3 94 0.1 SW 6 6 3 3 1024.6 1024.8 0.0
28/04:30am -4.5 -7.2 -5.7 91 0.2 CALM 0 2 0 1 1024.5 1024.7 0.0
28/04:00am -4.9 -7.7 -6.7 87 0.4 CALM 0 4 0 2 1024.5 1024.7 0.0
28/03:30am -3.7 -8.1 -5.4 88 0.4 SW 9 11 5 6 1024.5 1024.7 0.0
28/03:00am -3.8 -7.2 -5.2 90 0.3 WSW 4 6 2 3 1024.4 1024.5 0.0
28/02:30am -4.4 -7.5 -6.5 85 0.5 NW 2 6 1 3 1024.4 1024.5 0.0
28/02:00am -3.3 -5.9 -4.7 90 0.3 CALM 0 0 0 0 1024.4 1024.5 0.0
28/01:30am -3.7 -7.4 -4.9 91 0.2 WSW 6 9 3 5 1024.5 1024.7 0.0
28/01:00am -4.0 -6.8 -6.9 80 0.7 CALM 0 0 0 0 1024.6 1024.8 0.0
28/12:30am -2.4 -4.9 -3.8 90 0.4 CALM 0 0 0 0 1024.9 1025.0 0.0
28/12:00am -2.7 -5.3 -4.9 85 0.6 CALM 0 0 0 0 1024.9 1025.0 0.0
 
Date/Time
EST
Temp
°C
App
Temp
°C
Dew
Point
°C
Rel
Hum
%
Delta-T
°C
Wind Press
QNH
hPa
Press
MSL
hPa
Rain since
9am
mm
Dir  Spd
km/h
Gust
km/h
Spd
kts
Gust
kts
27/11:30pm -3.0 -5.6 -5.0 86 0.5 CALM 0 0 0 0 1025.0 1025.1 0.0
27/11:00pm -1.7 -4.2 -4.0 84 0.7 CALM 0 0 0 0 1025.1 1025.2 0.0
27/10:30pm -1.3 -3.8 -4.3 80 1.0 CALM 0 7 0 4 1025.3 1025.4 0.0
27/10:00pm -0.6 -3.2 -4.8 73 1.4 CALM 0 0 0 0 1025.2 1025.3 0.0
27/09:30pm 0.2 -2.2 -3.2 78 1.2 CALM 0 0 0 0 1025.3 1025.4 0.0
27/09:00pm 0.9 -1.6 -3.7 71 1.7 CALM 0 0 0 0 1025.2 1025.3 0.0
27/08:30pm 1.7 -1.1 -3.4 69 1.9 W 2 6 1 3 1024.9 1025.0 0.0
27/08:00pm 1.9 -2.6 -3.0 70 1.8 SSW 11 13 6 7 1024.4 1024.5 0.0
27/07:30pm 2.5 -1.9 -2.8 68 1.9 SSW 11 13 6 7 1024.1 1024.2 0.0
27/07:00pm 2.8 -2.0 -2.5 68 2.0 SSW 13 15 7 8 1023.8 1023.9 0.0
27/06:30pm 5.6 1.9 -3.2 53 3.3 SSW 7 9 4 5 1023.2 1023.3 0.0
27/06:00pm 6.3 1.4 -3.3 50 3.6 S 13 17 7 9 1022.8 1022.9 0.0
27/05:30pm 8.1 3.3 -2.5 47 4.2 SSW 13 17 7 9 1022.2 1022.3 0.0
27/05:00pm 9.0 4.1 -3.5 41 4.8 SSW 13 19 7 10 1021.9 1022.0 0.0
27/04:30pm 9.4 4.1 -3.2 41 5.0 SSW 15 20 8 11 1021.6 1021.6 0.0
27/04:00pm 9.6 4.6 -4.4 37 5.3 S 13 22 7 12 1021.4 1021.4 0.0
27/03:30pm 9.8 4.8 -4.2 37 5.4 SSW 13 20 7 11 1021.4 1021.4 0.0
27/03:00pm 9.2 3.4 -5.1 36 5.3 SSW 17 26 9 14 1021.4 1021.4 0.0
27/02:30pm 8.9 2.3 -6.5 33 5.6 SSW 20 35 11 19 1021.5 1021.5 0.0
27/02:00pm 9.7 2.9 -5.4 34 5.6 SSW 22 32 12 17 1021.5 1021.5 0.0
27/01:30pm 9.2 2.4 -5.1 36 5.4 SSW 22 33 12 18 1021.6 1021.6 0.0
27/01:00pm 8.6 2.1 -5.6 36 5.2 SSW 20 30 11 16 1021.7 1021.7 0.0
27/12:30pm 8.5 1.8 -4.6 39 4.9 SSW 22 35 12 19 1021.7 1021.7 0.0
27/12:00pm 8.7 2.2 -2.3 46 4.4 SSW 22 33 12 18 1021.8 1021.9 0.0
27/11:30am 7.5 0.0 -4.6 42 4.5 SW 26 37 14 20 1021.8 1021.9 0.0
27/11:00am 7.0 -1.3 -5.0 42 4.4 SSW 30 41 16 22 1021.8 1021.9 0.0
27/10:30am 6.9 -1.7 -2.5 51 3.7 SSW 33 41 18 22 1021.7 1021.7 0.0
27/10:00am 6.6 -3.0 -1.8 55 3.3 SSW 39 48 21 26 1021.4 1021.4 0.0
27/09:30am 5.7 -3.0 -0.6 64 2.5 SSW 35 46 19 25 1021.1 1021.2 0.0
27/09:07am 4.7 -4.4 -0.5 69 2.1 SSW 37 46 20 25 1020.9 1021.0 0.0
27/09:00am 5.1 -3.0 0.7 73 1.8 SSW 33 44 18 24 1020.8 1020.9 0.0
27/08:30am 4.6 -2.4 1.8 82 1.2 SW 28 33 15 18 1020.5 1020.5 0.0
27/08:00am 2.7 -5.4 1.2 90 0.6 SSW 33 44 18 24 1020.0 1020.1 0.0
27/07:30am 2.1 -6.4 1.1 93 0.4 SSW 35 43 19 23 1019.5 1019.5 0.0
27/07:04am 1.8 -6.6 1.4 97 0.2 SSW 35 46 19 25 1018.7 1018.7 0.0
27/07:01am 1.9 -6.1 1.5 97 0.2 SSW 33 46 18 25 1018.5 1018.5 0.0
27/07:00am 2.0 -5.8 1.6 97 0.2 SSW 32 43 17 23 1018.6 1018.6 0.0
27/06:30am 2.6 -2.7 1.6 93 0.4 SSW 19 24 10 13 1018.1 1018.1 0.0
27/06:23am 2.6 -2.0 1.4 92 0.5 SW 15 19 8 10 1017.9 1017.8 0.0
27/06:00am 1.4 -1.9 0.1 91 0.5 WSW 7 9 4 5 1017.2 1017.2 0.0
27/05:30am 1.7 -2.1 -0.4 86 0.8 SSW 9 11 5 6 1016.7 1016.6 0.0
27/05:00am 1.5 -3.1 -1.2 82 1.0 SSW 13 20 7 11 1015.9 1015.8 0.0
27/04:30am 3.5 -2.2 -1.1 72 1.8 WSW 19 26 10 14 1015.3 1015.3 0.0
27/04:00am 3.9 -2.4 -0.9 71 1.9 W 22 30 12 16 1014.9 1014.8 0.0
27/03:30am 4.1 -2.6 -1.1 69 2.0 W 24 32 13 17 1014.7 1014.6 0.0
27/03:00am 4.3 -2.0 -1.3 67 2.2 W 22 28 12 15 1014.4 1014.3 0.0
27/02:30am 4.4 -2.3 -1.2 67 2.2 W 24 33 13 18 1014.1 1014.0 0.0
27/02:00am 4.2 -2.9 -1.2 68 2.1 W 26 33 14 18 1014.0 1013.9 0.0
27/01:31am 4.0 -3.6 -1.8 66 2.2 W 28 46 15 25 1013.7 1013.6 0.0
27/01:30am 4.1 -3.8 -1.7 66 2.2 W 30 46 16 25 1013.7 1013.6 0.0
27/01:00am 4.3 -4.0 -1.5 66 2.2 W 32 43 17 23 1014.1 1014.0 0.0
27/12:30am 4.1 -2.7 -1.9 65 2.3 W 24 32 13 17 1014.0 1013.9 0.0
27/12:00am 4.3 -3.2 -1.3 67 2.2 W 28 37 15 20 1014.0 1013.9 0.0
 
Date/Time
EST
Temp
°C
App
Temp
°C
Dew
Point
°C
Rel
Hum
%
Delta-T
°C
Wind Press
QNH
hPa
Press
MSL
hPa
Rain since
9am
mm
Dir  Spd
km/h
Gust
km/h
Spd
kts
Gust
kts
26/11:30pm 4.1 -3.1 -1.9 65 2.3 W 26 39 14 21 1014.0 1013.9 0.0
26/11:00pm 3.9 -2.0 -2.5 63 2.4 W 19 30 10 16 1014.1 1014.0 0.0
26/10:30pm 3.9 -2.2 -2.1 65 2.3 W 20 32 11 17 1014.1 1014.0 0.0
26/10:00pm 3.9 -1.6 -1.9 66 2.2 W 17 30 9 16 1014.1 1014.0 0.0
26/09:30pm 3.4 -2.2 -2.5 65 2.2 W 17 26 9 14 1014.2 1014.1 0.0
26/09:00pm 3.4 -2.0 -1.7 69 1.9 WSW 17 26 9 14 1014.0 1013.9 0.0
26/08:30pm 1.6 -3.2 -2.7 73 1.6 WSW 13 17 7 9 1013.7 1013.6 0.0
26/08:00pm 3.8 -3.0 -1.5 68 2.0 WSW 24 35 13 19 1013.3 1013.1 0.0
26/07:30pm 4.0 -3.2 -1.8 66 2.2 W 26 35 14 19 1012.9 1012.8 0.0
26/07:00pm 4.2 -3.8 -2.2 63 2.4 W 30 43 16 23 1012.5 1012.4 0.0
26/06:42pm 4.8 -4.2 -2.5 59 2.8 W 35 50 19 27 1012.2 1012.0 0.0
26/06:30pm 5.1 -2.0 -1.1 64 2.4 W 26 32 14 17 1012.1 1011.9 0.0
26/06:00pm 5.8 -0.2 -1.8 58 3.0 W 20 28 11 15 1011.6 1011.5 0.0
26/05:30pm 5.9 -0.2 -2.0 57 3.1 W 20 30 11 16 1011.1 1010.9 0.0
26/05:00pm 7.2 -1.8 -2.5 50 3.8 W 35 46 19 25 1010.3 1010.1 0.0
26/04:30pm 7.7 -0.8 -3.2 46 4.2 W 32 50 17 27 1010.1 1009.9 0.0
26/04:29pm 7.7 -0.8 -3.5 45 4.3 W 32 50 17 27 1010.1 1009.9 0.0
26/04:00pm 8.2 -1.6 -3.3 44 4.5 W 39 48 21 26 1009.7 1009.5 0.0
26/03:30pm 8.9 -0.2 -3.6 41 4.8 WSW 35 48 19 26 1009.0 1008.8 0.0

Latest Capital City Observations: Canberra | Sydney | Melbourne | Brisbane | Adelaide | Perth | Hobart | Darwin

Other formats

Comma delimited format used in spreadsheet applications
http://www.bom.gov.au/fwo/IDN60903/IDN60903.94921.axf

JavaScript Object Notation format (JSON) in row-major order
http://www.bom.gov.au/fwo/IDN60903/IDN60903.94921.json

Data quality

Most of these data are generated automatically and are frequently updated. Quality checks on data are not normally performed. It is possible for incorrect values to appear. Refer to information at About Latest Weather Observations and please check the disclaimer before using these data.